sensor_id;sensor_type;location;lat;lon;timestamp;temperature;humidity
24158;DHT22;12316;50.904;4.200;2024-02-23T00:00:10;6.20;99.90
24158;DHT22;12316;50.904;4.200;2024-02-23T00:02:37;6.00;99.90
24158;DHT22;12316;50.904;4.200;2024-02-23T00:05:04;6.00;99.90
24158;DHT22;12316;50.904;4.200;2024-02-23T00:07:31;6.00;99.90
24158;DHT22;12316;50.904;4.200;2024-02-23T00:09:56;6.00;99.90
24158;DHT22;12316;50.904;4.200;2024-02-23T00:12:23;6.10;99.90
24158;DHT22;12316;50.904;4.200;2024-02-23T00:14:48;6.10;99.90
24158;DHT22;12316;50.904;4.200;2024-02-23T00:17:16;6.00;99.90
24158;DHT22;12316;50.904;4.200;2024-02-23T00:19:45;6.00;99.90
24158;DHT22;12316;50.904;4.200;2024-02-23T00:22:11;6.00;99.90
24158;DHT22;12316;50.904;4.200;2024-02-23T00:24:37;6.00;99.90
24158;DHT22;12316;50.904;4.200;2024-02-23T00:27:03;5.80;99.90
24158;DHT22;12316;50.904;4.200;2024-02-23T00:29:29;5.70;99.90
24158;DHT22;12316;50.904;4.200;2024-02-23T00:31:54;5.80;99.90
24158;DHT22;12316;50.904;4.200;2024-02-23T00:34:20;5.80;99.90
24158;DHT22;12316;50.904;4.200;2024-02-23T00:36:45;5.80;99.90
24158;DHT22;12316;50.904;4.200;2024-02-23T00:39:11;5.80;99.90
24158;DHT22;12316;50.904;4.200;2024-02-23T00:41:38;5.90;99.90
24158;DHT22;12316;50.904;4.200;2024-02-23T00:44:03;5.90;99.90
24158;DHT22;12316;50.904;4.200;2024-02-23T00:46:30;5.70;99.90
24158;DHT22;12316;50.904;4.200;2024-02-23T00:48:56;5.60;99.90
24158;DHT22;12316;50.904;4.200;2024-02-23T00:51:21;5.60;99.90
24158;DHT22;12316;50.904;4.200;2024-02-23T00:53:48;5.40;99.90
24158;DHT22;12316;50.904;4.200;2024-02-23T00:56:14;5.40;99.90
24158;DHT22;12316;50.904;4.200;2024-02-23T00:58:39;5.60;99.90
24158;DHT22;12316;50.904;4.200;2024-02-23T01:01:05;5.70;99.90
24158;DHT22;12316;50.904;4.200;2024-02-23T01:03:31;5.60;99.90
24158;DHT22;12316;50.904;4.200;2024-02-23T01:05:56;5.70;99.90
24158;DHT22;12316;50.904;4.200;2024-02-23T01:08:22;5.70;99.90
24158;DHT22;12316;50.904;4.200;2024-02-23T01:10:47;5.70;99.90
24158;DHT22;12316;50.904;4.200;2024-02-23T01:13:13;5.60;99.90
24158;DHT22;12316;50.904;4.200;2024-02-23T01:15:39;5.70;99.90
24158;DHT22;12316;50.904;4.200;2024-02-23T01:18:05;5.60;99.90
24158;DHT22;12316;50.904;4.200;2024-02-23T01:20:34;5.60;99.90
24158;DHT22;12316;50.904;4.200;2024-02-23T01:23:00;5.70;99.90
24158;DHT22;12316;50.904;4.200;2024-02-23T01:25:26;5.60;99.90
24158;DHT22;12316;50.904;4.200;2024-02-23T01:27:52;5.50;99.90
24158;DHT22;12316;50.904;4.200;2024-02-23T01:30:17;5.40;99.90
24158;DHT22;12316;50.904;4.200;2024-02-23T01:32:47;5.50;99.90
24158;DHT22;12316;50.904;4.200;2024-02-23T01:35:13;5.60;99.90
24158;DHT22;12316;50.904;4.200;2024-02-23T01:37:38;5.60;99.90
24158;DHT22;12316;50.904;4.200;2024-02-23T01:40:04;5.60;99.90
24158;DHT22;12316;50.904;4.200;2024-02-23T01:42:31;5.60;99.90
24158;DHT22;12316;50.904;4.200;2024-02-23T01:44:57;5.60;99.90
24158;DHT22;12316;50.904;4.200;2024-02-23T01:47:23;5.60;99.90
24158;DHT22;12316;50.904;4.200;2024-02-23T01:49:50;5.50;99.90
24158;DHT22;12316;50.904;4.200;2024-02-23T01:52:16;5.40;99.90
24158;DHT22;12316;50.904;4.200;2024-02-23T01:54:43;5.50;99.90
24158;DHT22;12316;50.904;4.200;2024-02-23T01:57:09;5.40;99.90
24158;DHT22;12316;50.904;4.200;2024-02-23T01:59:36;5.40;99.90
24158;DHT22;12316;50.904;4.200;2024-02-23T02:02:04;5.30;99.90
24158;DHT22;12316;50.904;4.200;2024-02-23T02:04:30;5.40;99.90
24158;DHT22;12316;50.904;4.200;2024-02-23T02:06:57;5.50;99.90
24158;DHT22;12316;50.904;4.200;2024-02-23T02:09:24;5.60;99.90
24158;DHT22;12316;50.904;4.200;2024-02-23T02:11:50;5.50;99.90
24158;DHT22;12316;50.904;4.200;2024-02-23T02:14:16;5.30;99.90
24158;DHT22;12316;50.904;4.200;2024-02-23T02:16:42;5.40;99.90
24158;DHT22;12316;50.904;4.200;2024-02-23T02:19:09;5.40;99.90
24158;DHT22;12316;50.904;4.200;2024-02-23T02:21:36;5.60;99.90
24158;DHT22;12316;50.904;4.200;2024-02-23T02:24:02;5.70;99.90
24158;DHT22;12316;50.904;4.200;2024-02-23T02:26:28;5.60;99.90
24158;DHT22;12316;50.904;4.200;2024-02-23T02:28:54;5.80;99.90
24158;DHT22;12316;50.904;4.200;2024-02-23T02:31:19;5.70;99.90
24158;DHT22;12316;50.904;4.200;2024-02-23T02:33:45;5.80;99.90
24158;DHT22;12316;50.904;4.200;2024-02-23T02:36:11;5.80;99.90
24158;DHT22;12316;50.904;4.200;2024-02-23T02:38:37;5.80;99.90
24158;DHT22;12316;50.904;4.200;2024-02-23T02:41:03;5.80;99.90
24158;DHT22;12316;50.904;4.200;2024-02-23T02:43:29;5.80;99.90
24158;DHT22;12316;50.904;4.200;2024-02-23T02:45:54;5.90;99.90
24158;DHT22;12316;50.904;4.200;2024-02-23T02:48:20;5.90;99.90
24158;DHT22;12316;50.904;4.200;2024-02-23T02:50:46;5.90;99.90
24158;DHT22;12316;50.904;4.200;2024-02-23T02:53:11;6.10;99.90
24158;DHT22;12316;50.904;4.200;2024-02-23T02:55:41;5.90;99.90
24158;DHT22;12316;50.904;4.200;2024-02-23T02:58:08;5.90;99.90
24158;DHT22;12316;50.904;4.200;2024-02-23T03:00:34;5.90;99.90
24158;DHT22;12316;50.904;4.200;2024-02-23T03:02:59;6.00;99.90
24158;DHT22;12316;50.904;4.200;2024-02-23T03:05:25;5.90;99.90
24158;DHT22;12316;50.904;4.200;2024-02-23T03:07:51;5.90;99.90
24158;DHT22;12316;50.904;4.200;2024-02-23T03:10:16;6.10;99.90
24158;DHT22;12316;50.904;4.200;2024-02-23T03:12:42;6.00;99.90
24158;DHT22;12316;50.904;4.200;2024-02-23T03:15:08;6.10;99.90
24158;DHT22;12316;50.904;4.200;2024-02-23T03:17:35;5.90;99.90
24158;DHT22;12316;50.904;4.200;2024-02-23T03:20:02;5.90;99.90
24158;DHT22;12316;50.904;4.200;2024-02-23T03:22:30;5.90;99.90
24158;DHT22;12316;50.904;4.200;2024-02-23T03:24:56;6.00;99.90
24158;DHT22;12316;50.904;4.200;2024-02-23T03:27:28;5.90;99.90
24158;DHT22;12316;50.904;4.200;2024-02-23T03:29:53;6.00;99.90
24158;DHT22;12316;50.904;4.200;2024-02-23T03:32:19;6.10;99.90
24158;DHT22;12316;50.904;4.200;2024-02-23T03:34:45;6.20;99.90
24158;DHT22;12316;50.904;4.200;2024-02-23T03:37:10;6.30;99.90
24158;DHT22;12316;50.904;4.200;2024-02-23T03:39:36;6.40;99.90
24158;DHT22;12316;50.904;4.200;2024-02-23T03:42:03;6.50;99.90
24158;DHT22;12316;50.904;4.200;2024-02-23T03:44:29;6.30;99.90
24158;DHT22;12316;50.904;4.200;2024-02-23T03:46:55;6.40;99.90
24158;DHT22;12316;50.904;4.200;2024-02-23T03:49:20;6.30;99.90
24158;DHT22;12316;50.904;4.200;2024-02-23T03:51:47;6.40;99.90
24158;DHT22;12316;50.904;4.200;2024-02-23T03:54:13;6.20;99.90
24158;DHT22;12316;50.904;4.200;2024-02-23T03:56:40;6.40;99.90
24158;DHT22;12316;50.904;4.200;2024-02-23T03:59:08;6.30;99.90
24158;DHT22;12316;50.904;4.200;2024-02-23T04:01:38;6.30;99.90
24158;DHT22;12316;50.904;4.200;2024-02-23T04:04:04;6.30;99.90
24158;DHT22;12316;50.904;4.200;2024-02-23T04:06:30;6.10;99.90
24158;DHT22;12316;50.904;4.200;2024-02-23T04:08:56;6.10;99.90
24158;DHT22;12316;50.904;4.200;2024-02-23T04:11:21;6.00;99.90
24158;DHT22;12316;50.904;4.200;2024-02-23T04:13:47;6.10;99.90
24158;DHT22;12316;50.904;4.200;2024-02-23T04:16:13;5.90;99.90
24158;DHT22;12316;50.904;4.200;2024-02-23T04:18:38;5.90;99.90
24158;DHT22;12316;50.904;4.200;2024-02-23T04:21:04;6.10;99.90
24158;DHT22;12316;50.904;4.200;2024-02-23T04:23:30;6.10;99.90
24158;DHT22;12316;50.904;4.200;2024-02-23T04:25:56;6.10;99.90
24158;DHT22;12316;50.904;4.200;2024-02-23T04:28:21;6.10;99.90
24158;DHT22;12316;50.904;4.200;2024-02-23T04:30:47;6.00;99.90
24158;DHT22;12316;50.904;4.200;2024-02-23T04:33:13;5.90;99.90
24158;DHT22;12316;50.904;4.200;2024-02-23T04:35:38;5.90;99.90
24158;DHT22;12316;50.904;4.200;2024-02-23T04:38:04;5.70;99.90
24158;DHT22;12316;50.904;4.200;2024-02-23T04:40:29;5.80;99.90
24158;DHT22;12316;50.904;4.200;2024-02-23T04:42:56;5.90;99.90
24158;DHT22;12316;50.904;4.200;2024-02-23T04:45:22;5.90;99.90
24158;DHT22;12316;50.904;4.200;2024-02-23T04:47:48;5.80;99.90
24158;DHT22;12316;50.904;4.200;2024-02-23T04:50:14;5.80;99.90
24158;DHT22;12316;50.904;4.200;2024-02-23T04:52:39;5.90;99.90
24158;DHT22;12316;50.904;4.200;2024-02-23T04:55:05;5.90;99.90
24158;DHT22;12316;50.904;4.200;2024-02-23T04:57:31;5.90;99.90
24158;DHT22;12316;50.904;4.200;2024-02-23T04:59:57;6.00;99.90
24158;DHT22;12316;50.904;4.200;2024-02-23T05:02:23;5.90;99.90
24158;DHT22;12316;50.904;4.200;2024-02-23T05:04:48;5.90;99.90
24158;DHT22;12316;50.904;4.200;2024-02-23T05:07:14;5.90;99.90
24158;DHT22;12316;50.904;4.200;2024-02-23T05:09:39;6.00;99.90
24158;DHT22;12316;50.904;4.200;2024-02-23T05:12:07;6.00;99.90
24158;DHT22;12316;50.904;4.200;2024-02-23T05:14:33;6.00;99.90
24158;DHT22;12316;50.904;4.200;2024-02-23T05:16:58;6.10;99.90
24158;DHT22;12316;50.904;4.200;2024-02-23T05:19:24;6.10;99.90
24158;DHT22;12316;50.904;4.200;2024-02-23T05:21:50;6.20;99.90
24158;DHT22;12316;50.904;4.200;2024-02-23T05:24:15;6.30;99.90
24158;DHT22;12316;50.904;4.200;2024-02-23T05:26:41;6.30;99.90
24158;DHT22;12316;50.904;4.200;2024-02-23T05:29:07;6.50;99.90
24158;DHT22;12316;50.904;4.200;2024-02-23T05:31:47;6.30;99.90
24158;DHT22;12316;50.904;4.200;2024-02-23T05:34:13;6.30;99.90
24158;DHT22;12316;50.904;4.200;2024-02-23T05:36:39;6.30;99.90
24158;DHT22;12316;50.904;4.200;2024-02-23T05:39:05;6.40;99.90
24158;DHT22;12316;50.904;4.200;2024-02-23T05:41:33;6.30;99.90
24158;DHT22;12316;50.904;4.200;2024-02-23T05:43:58;6.30;99.90
24158;DHT22;12316;50.904;4.200;2024-02-23T05:46:25;6.20;99.90
24158;DHT22;12316;50.904;4.200;2024-02-23T05:48:51;6.40;99.90
24158;DHT22;12316;50.904;4.200;2024-02-23T05:51:16;6.30;99.90
24158;DHT22;12316;50.904;4.200;2024-02-23T05:53:42;6.30;99.90
24158;DHT22;12316;50.904;4.200;2024-02-23T05:56:09;6.40;99.90
24158;DHT22;12316;50.904;4.200;2024-02-23T05:58:34;6.30;99.90
24158;DHT22;12316;50.904;4.200;2024-02-23T06:01:01;6.30;99.90
24158;DHT22;12316;50.904;4.200;2024-02-23T06:03:27;6.30;99.90
24158;DHT22;12316;50.904;4.200;2024-02-23T06:05:53;6.40;99.90
24158;DHT22;12316;50.904;4.200;2024-02-23T06:08:19;6.50;99.90
24158;DHT22;12316;50.904;4.200;2024-02-23T06:10:45;6.50;99.90
24158;DHT22;12316;50.904;4.200;2024-02-23T06:13:10;6.30;99.90
24158;DHT22;12316;50.904;4.200;2024-02-23T06:15:36;6.40;99.90
24158;DHT22;12316;50.904;4.200;2024-02-23T06:18:03;6.50;99.90
24158;DHT22;12316;50.904;4.200;2024-02-23T06:20:29;6.40;99.90
24158;DHT22;12316;50.904;4.200;2024-02-23T06:22:55;6.50;99.90
24158;DHT22;12316;50.904;4.200;2024-02-23T06:25:21;6.50;99.90
24158;DHT22;12316;50.904;4.200;2024-02-23T06:27:46;6.50;99.90
24158;DHT22;12316;50.904;4.200;2024-02-23T06:30:12;6.50;99.90
24158;DHT22;12316;50.904;4.200;2024-02-23T06:32:38;6.50;99.90
24158;DHT22;12316;50.904;4.200;2024-02-23T06:35:05;6.60;99.90
24158;DHT22;12316;50.904;4.200;2024-02-23T06:37:32;6.50;99.90
24158;DHT22;12316;50.904;4.200;2024-02-23T06:39:58;6.60;99.90
24158;DHT22;12316;50.904;4.200;2024-02-23T06:42:24;6.50;99.90
24158;DHT22;12316;50.904;4.200;2024-02-23T06:44:50;6.50;99.90
24158;DHT22;12316;50.904;4.200;2024-02-23T06:47:16;6.50;99.90
24158;DHT22;12316;50.904;4.200;2024-02-23T06:49:42;6.40;99.90
24158;DHT22;12316;50.904;4.200;2024-02-23T06:52:09;6.50;99.90
24158;DHT22;12316;50.904;4.200;2024-02-23T06:54:34;6.60;99.90
24158;DHT22;12316;50.904;4.200;2024-02-23T06:57:00;6.60;99.90
24158;DHT22;12316;50.904;4.200;2024-02-23T06:59:26;6.50;99.90
24158;DHT22;12316;50.904;4.200;2024-02-23T07:01:52;6.70;99.90
24158;DHT22;12316;50.904;4.200;2024-02-23T07:04:18;6.60;99.90
24158;DHT22;12316;50.904;4.200;2024-02-23T07:06:44;6.80;99.90
24158;DHT22;12316;50.904;4.200;2024-02-23T07:09:10;6.70;99.90
24158;DHT22;12316;50.904;4.200;2024-02-23T07:11:37;6.80;99.90
24158;DHT22;12316;50.904;4.200;2024-02-23T07:14:03;6.80;99.90
24158;DHT22;12316;50.904;4.200;2024-02-23T07:16:29;6.90;99.90
24158;DHT22;12316;50.904;4.200;2024-02-23T07:18:54;6.80;99.90
24158;DHT22;12316;50.904;4.200;2024-02-23T07:21:20;6.80;99.90
24158;DHT22;12316;50.904;4.200;2024-02-23T07:23:46;6.80;99.90
24158;DHT22;12316;50.904;4.200;2024-02-23T07:26:12;6.90;99.90
24158;DHT22;12316;50.904;4.200;2024-02-23T07:28:37;6.90;99.90
24158;DHT22;12316;50.904;4.200;2024-02-23T07:31:03;7.00;99.90
24158;DHT22;12316;50.904;4.200;2024-02-23T07:33:29;7.10;99.90
24158;DHT22;12316;50.904;4.200;2024-02-23T07:35:54;7.00;99.90
24158;DHT22;12316;50.904;4.200;2024-02-23T07:38:20;6.90;99.90
24158;DHT22;12316;50.904;4.200;2024-02-23T07:40:46;6.90;99.90
24158;DHT22;12316;50.904;4.200;2024-02-23T07:43:11;7.00;99.90
24158;DHT22;12316;50.904;4.200;2024-02-23T07:45:37;6.90;99.90
24158;DHT22;12316;50.904;4.200;2024-02-23T07:48:04;7.00;99.90
24158;DHT22;12316;50.904;4.200;2024-02-23T07:50:29;7.00;99.90
24158;DHT22;12316;50.904;4.200;2024-02-23T07:52:55;7.10;99.90
24158;DHT22;12316;50.904;4.200;2024-02-23T07:55:20;7.10;99.90
24158;DHT22;12316;50.904;4.200;2024-02-23T07:57:48;7.00;99.90
24158;DHT22;12316;50.904;4.200;2024-02-23T08:00:14;7.00;99.90
24158;DHT22;12316;50.904;4.200;2024-02-23T08:02:40;6.70;99.90
24158;DHT22;12316;50.904;4.200;2024-02-23T08:05:07;6.60;99.90
24158;DHT22;12316;50.904;4.200;2024-02-23T08:07:32;6.60;99.90
24158;DHT22;12316;50.904;4.200;2024-02-23T08:09:58;6.60;99.90
24158;DHT22;12316;50.904;4.200;2024-02-23T08:12:24;6.50;99.90
24158;DHT22;12316;50.904;4.200;2024-02-23T08:14:49;6.50;99.90
24158;DHT22;12316;50.904;4.200;2024-02-23T08:17:19;6.40;99.90
24158;DHT22;12316;50.904;4.200;2024-02-23T08:19:46;6.40;99.90
24158;DHT22;12316;50.904;4.200;2024-02-23T08:22:12;6.40;99.90
24158;DHT22;12316;50.904;4.200;2024-02-23T08:24:37;6.40;99.90
24158;DHT22;12316;50.904;4.200;2024-02-23T08:27:03;6.40;99.90
24158;DHT22;12316;50.904;4.200;2024-02-23T08:29:29;6.40;99.90
24158;DHT22;12316;50.904;4.200;2024-02-23T08:31:54;6.30;99.90
24158;DHT22;12316;50.904;4.200;2024-02-23T08:34:20;6.30;99.90
24158;DHT22;12316;50.904;4.200;2024-02-23T08:36:45;6.30;99.90
24158;DHT22;12316;50.904;4.200;2024-02-23T08:39:11;6.30;99.90
24158;DHT22;12316;50.904;4.200;2024-02-23T08:41:39;6.30;99.90
24158;DHT22;12316;50.904;4.200;2024-02-23T08:44:05;6.40;99.90
24158;DHT22;12316;50.904;4.200;2024-02-23T08:46:31;6.30;99.90
24158;DHT22;12316;50.904;4.200;2024-02-23T08:48:56;6.50;99.90
24158;DHT22;12316;50.904;4.200;2024-02-23T08:51:22;6.40;99.90
24158;DHT22;12316;50.904;4.200;2024-02-23T08:53:48;6.50;99.90
24158;DHT22;12316;50.904;4.200;2024-02-23T08:56:13;6.50;99.90
24158;DHT22;12316;50.904;4.200;2024-02-23T08:58:41;6.50;99.90
24158;DHT22;12316;50.904;4.200;2024-02-23T09:01:07;6.60;99.90
24158;DHT22;12316;50.904;4.200;2024-02-23T09:03:34;6.70;99.90
24158;DHT22;12316;50.904;4.200;2024-02-23T09:06:00;6.60;99.90
24158;DHT22;12316;50.904;4.200;2024-02-23T09:08:26;6.90;99.90
24158;DHT22;12316;50.904;4.200;2024-02-23T09:10:51;6.90;99.90
24158;DHT22;12316;50.904;4.200;2024-02-23T09:13:17;7.00;99.90
24158;DHT22;12316;50.904;4.200;2024-02-23T09:15:42;7.10;99.90
24158;DHT22;12316;50.904;4.200;2024-02-23T09:18:08;7.10;99.90
24158;DHT22;12316;50.904;4.200;2024-02-23T09:20:34;7.40;99.90
24158;DHT22;12316;50.904;4.200;2024-02-23T09:22:59;7.50;99.90
24158;DHT22;12316;50.904;4.200;2024-02-23T09:25:25;7.50;99.90
24158;DHT22;12316;50.904;4.200;2024-02-23T09:27:51;7.60;99.90
24158;DHT22;12316;50.904;4.200;2024-02-23T09:30:16;7.50;99.90
24158;DHT22;12316;50.904;4.200;2024-02-23T09:32:42;7.60;99.90
24158;DHT22;12316;50.904;4.200;2024-02-23T09:35:09;7.60;99.90
24158;DHT22;12316;50.904;4.200;2024-02-23T09:37:35;7.70;99.90
24158;DHT22;12316;50.904;4.200;2024-02-23T09:40:01;7.80;99.90
24158;DHT22;12316;50.904;4.200;2024-02-23T09:42:28;7.90;99.90
24158;DHT22;12316;50.904;4.200;2024-02-23T09:44:59;8.10;99.90
24158;DHT22;12316;50.904;4.200;2024-02-23T09:47:29;7.90;99.90
24158;DHT22;12316;50.904;4.200;2024-02-23T09:49:55;8.40;99.90
24158;DHT22;12316;50.904;4.200;2024-02-23T09:52:22;8.50;99.90
24158;DHT22;12316;50.904;4.200;2024-02-23T09:54:48;8.50;99.90
24158;DHT22;12316;50.904;4.200;2024-02-23T09:57:14;8.50;99.90
24158;DHT22;12316;50.904;4.200;2024-02-23T09:59:40;8.40;99.90
24158;DHT22;12316;50.904;4.200;2024-02-23T10:02:09;8.30;99.90
24158;DHT22;12316;50.904;4.200;2024-02-23T10:04:38;8.50;99.90
24158;DHT22;12316;50.904;4.200;2024-02-23T10:07:06;8.50;99.90
24158;DHT22;12316;50.904;4.200;2024-02-23T10:09:32;8.60;99.90
24158;DHT22;12316;50.904;4.200;2024-02-23T10:11:57;8.60;99.90
24158;DHT22;12316;50.904;4.200;2024-02-23T10:14:23;8.30;99.90
24158;DHT22;12316;50.904;4.200;2024-02-23T10:16:49;8.20;99.90
24158;DHT22;12316;50.904;4.200;2024-02-23T10:19:19;8.30;99.90
24158;DHT22;12316;50.904;4.200;2024-02-23T10:21:46;8.40;99.90
24158;DHT22;12316;50.904;4.200;2024-02-23T10:24:12;8.20;99.90
24158;DHT22;12316;50.904;4.200;2024-02-23T10:26:37;8.20;99.90
24158;DHT22;12316;50.904;4.200;2024-02-23T10:29:03;8.30;99.90
24158;DHT22;12316;50.904;4.200;2024-02-23T10:31:34;8.00;99.90
24158;DHT22;12316;50.904;4.200;2024-02-23T10:34:09;8.00;99.90
24158;DHT22;12316;50.904;4.200;2024-02-23T10:36:49;7.90;99.90
24158;DHT22;12316;50.904;4.200;2024-02-23T10:39:17;8.10;99.90
24158;DHT22;12316;50.904;4.200;2024-02-23T10:41:57;8.00;99.90
24158;DHT22;12316;50.904;4.200;2024-02-23T10:44:28;8.30;99.90
24158;DHT22;12316;50.904;4.200;2024-02-23T10:46:55;8.20;99.90
24158;DHT22;12316;50.904;4.200;2024-02-23T10:49:23;8.40;99.90
24158;DHT22;12316;50.904;4.200;2024-02-23T10:51:53;8.30;99.90
24158;DHT22;12316;50.904;4.200;2024-02-23T10:54:20;8.30;99.90
24158;DHT22;12316;50.904;4.200;2024-02-23T10:56:48;8.50;99.90
24158;DHT22;12316;50.904;4.200;2024-02-23T10:59:14;8.60;99.90
24158;DHT22;12316;50.904;4.200;2024-02-23T11:01:48;8.50;99.90
24158;DHT22;12316;50.904;4.200;2024-02-23T11:04:21;8.50;99.90
24158;DHT22;12316;50.904;4.200;2024-02-23T11:06:51;8.70;99.90
24158;DHT22;12316;50.904;4.200;2024-02-23T11:09:21;8.60;99.90
24158;DHT22;12316;50.904;4.200;2024-02-23T11:11:57;8.80;99.90
24158;DHT22;12316;50.904;4.200;2024-02-23T11:14:34;8.50;99.90
24158;DHT22;12316;50.904;4.200;2024-02-23T11:17:00;8.50;99.90
24158;DHT22;12316;50.904;4.200;2024-02-23T11:19:37;8.40;99.90
24158;DHT22;12316;50.904;4.200;2024-02-23T11:22:04;8.60;99.90
24158;DHT22;12316;50.904;4.200;2024-02-23T11:24:31;8.60;99.90
24158;DHT22;12316;50.904;4.200;2024-02-23T11:27:01;8.80;99.90
24158;DHT22;12316;50.904;4.200;2024-02-23T11:29:52;8.90;99.90
24158;DHT22;12316;50.904;4.200;2024-02-23T11:32:41;8.90;99.90
24158;DHT22;12316;50.904;4.200;2024-02-23T11:35:10;9.00;99.90
24158;DHT22;12316;50.904;4.200;2024-02-23T11:37:52;9.00;99.90
24158;DHT22;12316;50.904;4.200;2024-02-23T11:40:25;8.90;99.90
24158;DHT22;12316;50.904;4.200;2024-02-23T11:42:51;8.90;99.90
24158;DHT22;12316;50.904;4.200;2024-02-23T11:45:17;9.00;99.90
24158;DHT22;12316;50.904;4.200;2024-02-23T11:47:43;9.10;99.90
24158;DHT22;12316;50.904;4.200;2024-02-23T11:53:39;9.20;99.90
24158;DHT22;12316;50.904;4.200;2024-02-23T11:56:05;9.10;99.90
24158;DHT22;12316;50.904;4.200;2024-02-23T11:58:34;8.90;99.90
24158;DHT22;12316;50.904;4.200;2024-02-23T12:04:32;9.30;99.90
24158;DHT22;12316;50.904;4.200;2024-02-23T12:06:58;9.70;99.90
24158;DHT22;12316;50.904;4.200;2024-02-23T12:09:23;10.00;99.90
24158;DHT22;12316;50.904;4.200;2024-02-23T12:11:49;10.30;99.90
24158;DHT22;12316;50.904;4.200;2024-02-23T12:14:15;9.90;99.90
24158;DHT22;12316;50.904;4.200;2024-02-23T12:16:42;9.50;99.90
24158;DHT22;12316;50.904;4.200;2024-02-23T12:19:08;9.50;99.90
24158;DHT22;12316;50.904;4.200;2024-02-23T12:21:34;9.60;99.90
24158;DHT22;12316;50.904;4.200;2024-02-23T12:24:07;9.40;99.90
24158;DHT22;12316;50.904;4.200;2024-02-23T12:26:33;9.30;99.90
24158;DHT22;12316;50.904;4.200;2024-02-23T12:29:02;9.10;99.90
24158;DHT22;12316;50.904;4.200;2024-02-23T12:31:28;9.20;99.90
24158;DHT22;12316;50.904;4.200;2024-02-23T12:33:54;9.40;99.90
24158;DHT22;12316;50.904;4.200;2024-02-23T12:36:22;9.50;99.90
24158;DHT22;12316;50.904;4.200;2024-02-23T12:38:48;9.60;99.90
24158;DHT22;12316;50.904;4.200;2024-02-23T12:41:14;9.70;99.90
24158;DHT22;12316;50.904;4.200;2024-02-23T12:43:40;9.70;99.90
24158;DHT22;12316;50.904;4.200;2024-02-23T12:46:05;9.90;99.90
24158;DHT22;12316;50.904;4.200;2024-02-23T12:48:33;9.60;99.90
24158;DHT22;12316;50.904;4.200;2024-02-23T12:51:00;9.60;99.90
24158;DHT22;12316;50.904;4.200;2024-02-23T12:53:39;9.40;99.90
24158;DHT22;12316;50.904;4.200;2024-02-23T12:56:10;9.20;99.90
24158;DHT22;12316;50.904;4.200;2024-02-23T12:58:37;9.40;99.90
24158;DHT22;12316;50.904;4.200;2024-02-23T13:01:03;9.40;99.90
24158;DHT22;12316;50.904;4.200;2024-02-23T13:03:29;9.60;99.90
24158;DHT22;12316;50.904;4.200;2024-02-23T13:05:56;9.70;99.90
24158;DHT22;12316;50.904;4.200;2024-02-23T13:08:22;9.60;99.90
24158;DHT22;12316;50.904;4.200;2024-02-23T13:10:48;9.50;99.90
24158;DHT22;12316;50.904;4.200;2024-02-23T13:13:14;9.50;99.90
24158;DHT22;12316;50.904;4.200;2024-02-23T13:15:41;9.70;99.90
24158;DHT22;12316;50.904;4.200;2024-02-23T13:18:07;9.60;99.90
24158;DHT22;12316;50.904;4.200;2024-02-23T13:20:32;9.60;99.90
24158;DHT22;12316;50.904;4.200;2024-02-23T13:22:58;9.70;99.90
24158;DHT22;12316;50.904;4.200;2024-02-23T13:25:24;9.90;99.90
24158;DHT22;12316;50.904;4.200;2024-02-23T13:27:49;10.10;99.90
24158;DHT22;12316;50.904;4.200;2024-02-23T13:30:15;10.10;99.90
24158;DHT22;12316;50.904;4.200;2024-02-23T13:32:41;10.00;99.90
24158;DHT22;12316;50.904;4.200;2024-02-23T13:35:07;10.00;99.90
24158;DHT22;12316;50.904;4.200;2024-02-23T13:37:34;9.90;99.90
24158;DHT22;12316;50.904;4.200;2024-02-23T13:40:00;9.90;99.90
24158;DHT22;12316;50.904;4.200;2024-02-23T13:42:27;9.90;99.90
24158;DHT22;12316;50.904;4.200;2024-02-23T13:44:52;10.00;99.90
24158;DHT22;12316;50.904;4.200;2024-02-23T13:47:18;10.00;99.90
24158;DHT22;12316;50.904;4.200;2024-02-23T13:49:44;10.20;99.90
24158;DHT22;12316;50.904;4.200;2024-02-23T13:52:09;10.10;99.90
24158;DHT22;12316;50.904;4.200;2024-02-23T13:54:35;10.10;99.90
24158;DHT22;12316;50.904;4.200;2024-02-23T13:57:00;10.10;99.90
24158;DHT22;12316;50.904;4.200;2024-02-23T13:59:26;10.10;99.90
24158;DHT22;12316;50.904;4.200;2024-02-23T14:01:52;10.50;99.90
24158;DHT22;12316;50.904;4.200;2024-02-23T14:04:18;10.60;99.90
24158;DHT22;12316;50.904;4.200;2024-02-23T14:06:44;10.40;99.90
24158;DHT22;12316;50.904;4.200;2024-02-23T14:09:09;10.50;99.90
24158;DHT22;12316;50.904;4.200;2024-02-23T14:11:35;10.50;99.90
24158;DHT22;12316;50.904;4.200;2024-02-23T14:14:01;10.40;99.90
24158;DHT22;12316;50.904;4.200;2024-02-23T14:16:28;10.20;99.90
24158;DHT22;12316;50.904;4.200;2024-02-23T14:18:54;10.20;99.90
24158;DHT22;12316;50.904;4.200;2024-02-23T14:21:20;10.30;99.90
24158;DHT22;12316;50.904;4.200;2024-02-23T14:23:48;10.50;99.90
24158;DHT22;12316;50.904;4.200;2024-02-23T14:26:14;10.70;99.90
24158;DHT22;12316;50.904;4.200;2024-02-23T14:28:40;10.60;99.90
24158;DHT22;12316;50.904;4.200;2024-02-23T14:31:06;10.60;99.90
24158;DHT22;12316;50.904;4.200;2024-02-23T14:33:32;10.60;99.90
24158;DHT22;12316;50.904;4.200;2024-02-23T14:35:58;10.60;99.90
24158;DHT22;12316;50.904;4.200;2024-02-23T14:38:23;10.70;99.90
24158;DHT22;12316;50.904;4.200;2024-02-23T14:40:49;10.70;99.90
24158;DHT22;12316;50.904;4.200;2024-02-23T14:43:15;10.50;99.90
24158;DHT22;12316;50.904;4.200;2024-02-23T14:45:40;10.30;99.90
24158;DHT22;12316;50.904;4.200;2024-02-23T14:48:07;9.90;99.90
24158;DHT22;12316;50.904;4.200;2024-02-23T14:50:33;9.10;99.90
24158;DHT22;12316;50.904;4.200;2024-02-23T14:52:58;8.90;99.90
24158;DHT22;12316;50.904;4.200;2024-02-23T14:55:24;9.20;99.90
24158;DHT22;12316;50.904;4.200;2024-02-23T14:57:50;9.40;99.90
24158;DHT22;12316;50.904;4.200;2024-02-23T15:00:16;9.60;99.90
24158;DHT22;12316;50.904;4.200;2024-02-23T15:02:41;9.50;99.90
24158;DHT22;12316;50.904;4.200;2024-02-23T15:05:07;9.60;99.90
24158;DHT22;12316;50.904;4.200;2024-02-23T15:07:33;9.60;99.90
24158;DHT22;12316;50.904;4.200;2024-02-23T15:10:01;9.60;99.90
24158;DHT22;12316;50.904;4.200;2024-02-23T15:12:31;9.60;99.90
24158;DHT22;12316;50.904;4.200;2024-02-23T15:14:57;9.60;99.90
24158;DHT22;12316;50.904;4.200;2024-02-23T15:17:23;9.70;99.90
24158;DHT22;12316;50.904;4.200;2024-02-23T15:19:48;9.80;99.90
24158;DHT22;12316;50.904;4.200;2024-02-23T15:22:14;9.80;99.90
24158;DHT22;12316;50.904;4.200;2024-02-23T15:24:41;9.90;99.90
24158;DHT22;12316;50.904;4.200;2024-02-23T15:27:10;9.90;99.90
24158;DHT22;12316;50.904;4.200;2024-02-23T15:29:36;10.10;99.90
24158;DHT22;12316;50.904;4.200;2024-02-23T15:32:02;10.10;99.90
24158;DHT22;12316;50.904;4.200;2024-02-23T15:34:28;10.10;99.90
24158;DHT22;12316;50.904;4.200;2024-02-23T15:36:54;10.10;99.90
24158;DHT22;12316;50.904;4.200;2024-02-23T15:39:20;9.90;99.90
24158;DHT22;12316;50.904;4.200;2024-02-23T15:41:46;9.80;99.90
24158;DHT22;12316;50.904;4.200;2024-02-23T15:44:11;9.80;99.90
24158;DHT22;12316;50.904;4.200;2024-02-23T15:46:37;9.80;99.90